Time;durP1;ratioP1;P1;durP2;ratioP2;P2;SDS_P1;SDS_P2;PMS_P1;PMS_P2;Temp;Humidity;BMP_temperature;BMP_pressure;BME280_temperature;BME280_humidity;BME280_pressure;Samples;Min_cycle;Max_cycle;Signal;HPM_P1;HPM_P2
2023/08/25 00:00:47;;;;;;;2.80;2.70;;;;;;;24.65;nan;100066.41;4981455;28;20046;-76
2023/08/25 00:03:12;;;;;;;2.75;2.65;;;;;;;24.65;nan;100061.09;4983246;28;20706;-76
2023/08/25 00:05:38;;;;;;;3.30;3.10;;;;;;;24.66;nan;100060.13;4977269;28;20030;-76
2023/08/25 00:08:04;;;;;;;2.90;2.75;;;;;;;24.65;nan;100069.06;4980923;28;20383;-76
2023/08/25 00:10:29;;;;;;;3.00;2.90;;;;;;;24.65;nan;100061.09;4984338;28;20049;-76
2023/08/25 00:12:55;;;;;;;2.90;2.70;;;;;;;24.64;nan;100062.94;4982664;28;20106;-75
2023/08/25 00:15:20;;;;;;;3.00;2.80;;;;;;;24.65;nan;100071.72;4978291;28;20418;-75
2023/08/25 00:17:46;;;;;;;2.90;2.80;;;;;;;24.65;nan;100071.72;4985399;28;20860;-76
2023/08/25 00:20:12;;;;;;;2.85;2.75;;;;;;;24.64;nan;100059.44;4984005;28;20802;-75
2023/08/25 00:22:41;;;;;;;3.10;2.97;;;;;;;24.64;nan;100065.59;4989441;28;20130;-76
2023/08/25 00:25:06;;;;;;;;;;;;;;;24.65;nan;100074.38;4995669;28;20022;-76
2023/08/25 00:27:32;;;;;;;2.88;2.78;;;;;;;24.65;nan;100077.03;4985269;28;19928;-77
2023/08/25 00:29:57;;;;;;;3.20;3.00;;;;;;;24.65;nan;100079.69;4985365;28;20111;-77
2023/08/25 00:32:22;;;;;;;3.03;2.83;;;;;;;24.64;nan;100064.75;4981596;28;20030;-76
2023/08/25 00:34:48;;;;;;;2.83;2.63;;;;;;;24.65;nan;100061.09;4985933;28;20037;-75
2023/08/25 00:37:13;;;;;;;2.90;2.80;;;;;;;24.64;nan;100060.28;4982465;28;20026;-77
2023/08/25 00:39:39;;;;;;;2.90;2.70;;;;;;;24.64;nan;100054.13;4985834;28;20034;-76
2023/08/25 00:42:04;;;;;;;2.92;2.83;;;;;;;24.63;nan;100055.13;4986786;28;20034;-76
2023/08/25 00:44:30;;;;;;;2.72;2.63;;;;;;;24.64;nan;100056.78;4998847;28;20141;-76
2023/08/25 00:46:55;;;;;;;3.10;2.90;;;;;;;24.64;nan;100057.63;4988180;28;20782;-77
2023/08/25 00:49:21;;;;;;;2.88;2.78;;;;;;;24.64;nan;100048.81;4984513;28;20069;-77
2023/08/25 00:51:47;;;;;;;3.00;2.80;;;;;;;24.64;nan;100048.81;4984249;28;20810;-77
2023/08/25 00:54:12;;;;;;;3.00;2.90;;;;;;;24.63;nan;100041.84;4980120;28;20038;-76
2023/08/25 00:56:38;;;;;;;2.47;2.38;;;;;;;24.64;nan;100043.50;4989645;28;20038;-76
2023/08/25 00:59:04;;;;;;;3.03;2.85;;;;;;;24.63;nan;100045.34;4983512;28;20033;-77
2023/08/25 01:01:30;;;;;;;3.05;2.85;;;;;;;24.63;nan;100048.00;4984913;28;20116;-77
2023/08/25 01:03:56;;;;;;;2.92;2.72;;;;;;;24.64;nan;100057.63;4984637;28;20030;-76
2023/08/25 01:06:22;;;;;;;3.20;3.00;;;;;;;24.64;nan;100051.47;4981362;28;20066;-77
2023/08/25 01:08:47;;;;;;;3.00;2.80;;;;;;;24.63;nan;100053.31;4984417;28;20065;-76
2023/08/25 01:11:26;;;;;;;2.92;2.72;;;;;;;24.64;nan;100048.81;4983453;28;20030;-77
2023/08/25 01:13:53;;;;;;;2.80;2.60;;;;;;;24.63;nan;100042.69;4994826;28;20180;-77
2023/08/25 01:16:34;;;;;;;3.10;2.90;;;;;;;24.63;nan;100047.16;4990407;28;20300;-76
2023/08/25 01:19:00;;;;;;;3.20;3.00;;;;;;;24.62;nan;100034.84;4983066;28;20037;-76
2023/08/25 01:21:26;;;;;;;3.20;3.00;;;;;;;24.63;nan;100028.59;4982520;28;20034;-77
2023/08/25 01:23:57;;;;;;;2.65;2.55;;;;;;;24.63;nan;100036.53;4980376;28;20036;-76
2023/08/25 01:26:24;;;;;;;2.80;2.70;;;;;;;24.63;nan;100034.72;4980781;28;20133;-77
2023/08/25 01:28:52;;;;;;;2.97;2.78;;;;;;;24.62;nan;100029.53;4968145;28;20045;-77
2023/08/25 01:31:21;;;;;;;3.10;2.97;;;;;;;24.63;nan;100020.63;4983746;28;21267;-76
2023/08/25 01:33:47;;;;;;;2.60;2.50;;;;;;;24.62;nan;100025.09;4984222;28;20802;-77
2023/08/25 01:36:25;;;;;;;2.95;2.80;;;;;;;24.63;nan;100039.19;4980602;28;20869;-76
2023/08/25 01:39:06;;;;;;;3.03;2.83;;;;;;;24.63;nan;100028.59;4984328;28;20044;-76
2023/08/25 01:41:35;;;;;;;2.88;2.70;;;;;;;24.62;nan;100029.53;4983855;28;20034;-77
2023/08/25 01:44:05;;;;;;;3.17;2.97;;;;;;;24.62;nan;100026.88;4991659;28;20029;-76
2023/08/25 01:46:33;;;;;;;2.65;2.55;;;;;;;24.63;nan;100025.94;4989407;28;20048;-77
2023/08/25 01:48:59;;;;;;;2.75;2.58;;;;;;;24.62;nan;100029.53;4983423;28;20137;-77
2023/08/25 01:51:24;;;;;;;2.80;2.70;;;;;;;24.62;nan;100032.19;4983957;28;20711;-75
2023/08/25 01:53:54;;;;;;;2.67;2.58;;;;;;;24.62;nan;100032.19;4996447;28;20092;-75
2023/08/25 01:56:20;;;;;;;3.03;2.83;;;;;;;24.61;nan;100031.38;4982225;28;20420;-76
2023/08/25 01:58:45;;;;;;;2.72;2.63;;;;;;;24.62;nan;100027.75;4983433;28;20049;-76
2023/08/25 02:01:10;;;;;;;2.70;2.60;;;;;;;24.61;nan;100034.03;4982814;28;20429;-76
2023/08/25 02:03:36;;;;;;;2.88;2.70;;;;;;;24.61;nan;100030.53;4985376;28;20132;-77
2023/08/25 02:06:01;;;;;;;3.00;2.88;;;;;;;24.61;nan;100031.38;4979828;28;20899;-76
2023/08/25 02:08:26;;;;;;;3.05;2.85;;;;;;;24.61;nan;100020.75;4982789;28;20030;-76
2023/08/25 02:10:52;;;;;;;2.80;2.63;;;;;;;24.61;nan;100026.06;4982132;28;20025;-75
2023/08/25 02:13:18;;;;;;;2.75;2.65;;;;;;;24.61;nan;100028.72;4990474;28;20056;-75
2023/08/25 02:15:48;;;;;;;2.47;2.38;;;;;;;24.61;nan;100028.72;4982766;28;20653;-76
2023/08/25 02:18:13;;;;;;;2.67;2.58;;;;;;;24.62;nan;100029.53;4981940;28;20629;-76
2023/08/25 02:20:39;;;;;;;2.80;2.60;;;;;;;24.61;nan;100027.88;4982339;28;20041;-76
2023/08/25 02:23:05;;;;;;;2.85;2.67;;;;;;;24.61;nan;100025.22;4991811;28;20133;-76
2023/08/25 02:25:31;;;;;;;2.83;2.67;;;;;;;24.61;nan;100022.56;4986102;28;20026;-76
2023/08/25 02:27:56;;;;;;;2.60;2.50;;;;;;;24.61;nan;100025.22;4983833;28;20054;-76
2023/08/25 02:30:22;;;;;;;2.85;2.67;;;;;;;24.61;nan;100026.06;4982484;28;20026;-77
2023/08/25 02:32:47;;;;;;;2.75;2.55;;;;;;;24.60;nan;100032.34;4985592;28;20113;-76
2023/08/25 02:35:13;;;;;;;2.90;2.70;;;;;;;24.61;nan;100034.03;4959428;28;20733;-76
2023/08/25 02:37:54;;;;;;;2.70;2.50;;;;;;;24.61;nan;100019.91;4983237;28;20137;-76
2023/08/25 02:40:20;;;;;;;2.70;2.60;;;;;;;24.60;nan;100005.81;4982527;28;20033;-75
2023/08/25 02:42:45;;;;;;;2.55;2.45;;;;;;;24.59;nan;100004.97;4987049;28;20080;-77
2023/08/25 02:45:11;;;;;;;2.65;2.55;;;;;;;24.59;nan;100004.16;4994971;28;20053;-76
2023/08/25 02:47:36;;;;;;;2.90;2.70;;;;;;;24.59;nan;99993.53;4981829;28;20030;-76
2023/08/25 02:50:03;;;;;;;2.50;2.40;;;;;;;24.59;nan;99988.22;4983361;28;20433;-75
2023/08/25 02:52:28;;;;;;;2.70;2.60;;;;;;;24.59;nan;99981.09;4986854;28;20030;-75
2023/08/25 02:54:53;;;;;;;3.03;2.83;;;;;;;24.59;nan;99978.44;4995976;28;20084;-76
2023/08/25 02:57:19;;;;;;;3.00;2.80;;;;;;;24.58;nan;99979.44;4985070;28;20022;-75
2023/08/25 02:59:44;;;;;;;2.67;2.55;;;;;;;24.59;nan;99978.44;4983903;28;20084;-76
2023/08/25 03:02:09;;;;;;;2.50;2.40;;;;;;;24.59;nan;99972.31;4984845;28;20117;-76
2023/08/25 03:04:35;;;;;;;2.70;2.60;;;;;;;24.58;nan;99963.50;4982078;28;20022;-76
2023/08/25 03:07:00;;;;;;;2.97;2.80;;;;;;;24.58;nan;99965.31;4965545;28;20041;-75
2023/08/25 03:09:26;;;;;;;2.85;2.72;;;;;;;24.59;nan;99967.00;4984435;28;20123;-76
2023/08/25 03:11:51;;;;;;;2.42;2.30;;;;;;;24.59;nan;99964.34;4983212;28;20038;-76
2023/08/25 03:14:18;;;;;;;2.65;2.55;;;;;;;24.60;nan;99966.00;4977603;28;20158;-75
2023/08/25 03:16:43;;;;;;;2.85;2.65;;;;;;;24.58;nan;99968.81;4982459;28;21051;-76
2023/08/25 03:19:14;;;;;;;2.70;2.60;;;;;;;24.58;nan;99963.50;4982582;28;20034;-76
2023/08/25 03:21:39;;;;;;;2.80;2.60;;;;;;;24.58;nan;99960.84;4983486;28;20034;-76
2023/08/25 03:24:05;;;;;;;2.67;2.58;;;;;;;24.58;nan;99955.53;4979249;28;20037;-76
2023/08/25 03:26:30;;;;;;;2.60;2.50;;;;;;;24.59;nan;99953.72;4987845;28;20050;-76
2023/08/25 03:28:55;;;;;;;2.50;2.40;;;;;;;24.58;nan;99954.72;4983280;28;20066;-75
2023/08/25 03:31:21;;;;;;;3.00;2.80;;;;;;;24.59;nan;99959.03;4982775;28;20124;-76
2023/08/25 03:33:46;;;;;;;2.58;2.47;;;;;;;24.59;nan;99965.16;4961336;28;20426;-75
2023/08/25 03:36:11;;;;;;;2.60;2.40;;;;;;;24.58;nan;99957.38;4979648;28;20037;-76
2023/08/25 03:38:36;;;;;;;2.38;2.28;;;;;;;24.58;nan;99950.25;4982586;28;20018;-76
2023/08/25 03:41:02;;;;;;;2.28;2.17;;;;;;;24.58;nan;99941.44;4982724;28;20035;-76
2023/08/25 03:43:27;;;;;;;2.50;2.40;;;;;;;24.58;nan;99938.78;4978051;28;20045;-77
2023/08/25 03:45:52;;;;;;;2.53;2.42;;;;;;;24.57;nan;99943.25;4981922;28;20057;-76
2023/08/25 03:48:18;;;;;;;2.50;2.40;;;;;;;24.57;nan;99937.13;4968895;28;20497;-76
2023/08/25 03:50:47;;;;;;;2.88;2.67;;;;;;;24.57;nan;99930.00;4986690;28;20125;-76
2023/08/25 03:53:13;;;;;;;3.05;2.85;;;;;;;24.57;nan;99930.00;4982224;28;20034;-75
2023/08/25 03:55:39;;;;;;;3.22;3.03;;;;;;;24.57;nan;99924.69;4974229;28;20049;-75
2023/08/25 03:58:04;;;;;;;2.47;2.35;;;;;;;24.56;nan;99923.03;4985613;28;20863;-76
2023/08/25 04:00:29;;;;;;;2.55;2.45;;;;;;;24.57;nan;99918.56;4987319;28;20038;-75
2023/08/25 04:02:55;;;;;;;3.20;3.00;;;;;;;24.56;nan;99909.75;4993967;28;20033;-76
2023/08/25 04:05:20;;;;;;;2.60;2.50;;;;;;;24.56;nan;99911.53;4997011;28;20128;-77
2023/08/25 04:07:45;;;;;;;2.50;2.40;;;;;;;24.56;nan;99920.38;4986898;28;20038;-76
2023/08/25 04:10:10;;;;;;;2.65;2.53;;;;;;;24.57;nan;99921.19;4986293;28;20598;-77
2023/08/25 04:12:36;;;;;;;2.67;2.58;;;;;;;24.56;nan;99931.00;4983792;28;20513;-77
2023/08/25 04:15:01;;;;;;;2.60;2.50;;;;;;;24.56;nan;99920.38;4979436;28;20394;-77
2023/08/25 04:17:27;;;;;;;2.90;2.80;;;;;;;24.56;nan;99920.38;4985438;28;20079;-77
2023/08/25 04:19:52;;;;;;;2.55;2.45;;;;;;;24.55;nan;99918.69;4985130;28;20021;-76
2023/08/25 04:22:17;;;;;;;2.90;2.70;;;;;;;24.56;nan;99931.00;4983779;28;20030;-77
2023/08/25 04:24:43;;;;;;;3.10;2.90;;;;;;;24.56;nan;99936.28;4980666;28;20065;-77
2023/08/25 04:27:08;;;;;;;2.47;2.38;;;;;;;24.56;nan;99962.84;4986086;28;20054;-77
2023/08/25 04:29:33;;;;;;;2.53;2.42;;;;;;;24.58;nan;100007.78;4986182;28;20123;-75
2023/08/25 04:31:59;;;;;;;2.67;2.58;;;;;;;24.58;nan;100045.78;4987628;28;20064;-76
2023/08/25 04:34:24;;;;;;;2.55;2.38;;;;;;;24.58;nan;100053.75;5000212;28;20034;-77
2023/08/25 04:36:49;;;;;;;2.60;2.50;;;;;;;24.57;nan;100032.66;4990465;28;20030;-73
2023/08/25 04:39:15;;;;;;;2.72;2.53;;;;;;;24.55;nan;100016.88;4986579;28;20033;-76
2023/08/25 04:41:41;;;;;;;2.60;2.50;;;;;;;24.56;nan;100015.91;4984785;28;20133;-76
2023/08/25 04:44:06;;;;;;;2.58;2.40;;;;;;;24.55;nan;99987.69;4978477;28;20877;-76
2023/08/25 04:46:32;;;;;;;2.70;2.60;;;;;;;24.54;nan;99978.06;4982929;28;20037;-76
2023/08/25 04:48:57;;;;;;;2.50;2.40;;;;;;;24.53;nan;99957.81;4986368;28;20422;-76
2023/08/25 04:51:22;;;;;;;2.60;2.50;;;;;;;24.55;nan;99955.00;4968338;28;20061;-77
2023/08/25 04:53:48;;;;;;;2.70;2.60;;;;;;;24.55;nan;99962.97;4997828;28;20805;-76
2023/08/25 04:56:14;;;;;;;2.60;2.50;;;;;;;24.54;nan;99951.53;4989583;28;20081;-76
2023/08/25 04:58:40;;;;;;;2.47;2.38;;;;;;;24.54;nan;99946.22;4986420;28;20030;-76
2023/08/25 05:01:06;;;;;;;2.78;2.58;;;;;;;24.54;nan;99954.16;4984482;28;20049;-77
2023/08/25 05:03:31;;;;;;;2.30;2.20;;;;;;;24.54;nan;99970.09;4979121;28;20703;-76
2023/08/25 05:05:57;;;;;;;2.55;2.45;;;;;;;24.55;nan;99966.44;4983083;28;20100;-76
2023/08/25 05:08:22;;;;;;;2.50;2.40;;;;;;;24.54;nan;99938.25;4985596;28;20037;-77
2023/08/25 05:10:47;;;;;;;2.50;2.40;;;;;;;24.53;nan;99923.31;4985976;28;21307;-75
2023/08/25 05:13:13;;;;;;;2.55;2.45;;;;;;;24.54;nan;99948.03;4980717;28;20040;-76
2023/08/25 05:15:38;;;;;;;2.30;2.20;;;;;;;24.54;nan;99980.72;4992946;28;20038;-76
2023/08/25 05:18:03;;;;;;;2.42;2.33;;;;;;;24.54;nan;99983.38;4984386;28;20486;-76
2023/08/25 05:20:29;;;;;;;2.60;2.50;;;;;;;24.55;nan;100040.75;4985070;28;20045;-76
2023/08/25 05:22:54;;;;;;;2.47;2.38;;;;;;;24.56;nan;100099.97;4991917;28;20041;-77
2023/08/25 05:25:20;;;;;;;2.65;2.45;;;;;;;24.56;nan;100062.81;4986233;28;20528;-77
2023/08/25 05:27:46;;;;;;;2.60;2.50;;;;;;;24.55;nan;100083.22;4984962;28;20105;-76
2023/08/25 05:30:12;;;;;;;2.13;2.03;;;;;;;24.54;nan;100097.50;4967999;28;20076;-77
2023/08/25 05:32:37;;;;;;;2.60;2.50;;;;;;;24.54;nan;100081.56;4966914;28;20144;-77
2023/08/25 05:35:03;;;;;;;2.60;2.50;;;;;;;24.54;nan;100073.59;4981100;28;20026;-76
2023/08/25 05:37:29;;;;;;;2.33;2.22;;;;;;;24.53;nan;100074.59;4985726;28;20876;-76
2023/08/25 05:39:54;;;;;;;2.88;2.67;;;;;;;24.53;nan;100090.50;4985604;28;20034;-76
2023/08/25 05:42:25;;;;;;;2.30;2.20;;;;;;;24.53;nan;100085.22;4989211;28;20144;-77
2023/08/25 05:44:50;;;;;;;2.50;2.40;;;;;;;24.54;nan;100116.06;4978166;28;20034;-77
2023/08/25 05:47:15;;;;;;;2.60;2.40;;;;;;;24.53;nan;100119.72;4967365;28;20072;-77
2023/08/25 05:49:41;;;;;;;2.55;2.45;;;;;;;24.53;nan;100095.81;4984052;28;20076;-77
2023/08/25 05:52:06;;;;;;;2.63;2.53;;;;;;;24.53;nan;100108.25;4984615;28;20025;-77
2023/08/25 05:54:31;;;;;;;2.22;2.13;;;;;;;24.53;nan;100098.47;4991476;28;20054;-77
2023/08/25 05:56:58;;;;;;;2.50;2.40;;;;;;;24.52;nan;100091.50;4983116;28;20628;-76
2023/08/25 05:59:24;;;;;;;2.58;2.47;;;;;;;24.52;nan;100077.41;4982937;28;20143;-75
2023/08/25 06:01:49;;;;;;;2.80;2.70;;;;;;;24.51;nan;100065.97;4983826;28;20091;-76
2023/08/25 06:04:15;;;;;;;2.47;2.38;;;;;;;24.51;nan;100028.81;4979846;28;20019;-76
2023/08/25 06:06:41;;;;;;;2.40;2.30;;;;;;;24.52;nan;100048.22;4985719;28;20200;-76
2023/08/25 06:09:08;;;;;;;2.33;2.22;;;;;;;24.51;nan;100060.66;4984404;28;20033;-76
2023/08/25 06:11:33;;;;;;;2.67;2.58;;;;;;;24.51;nan;100071.25;4968342;28;20045;-75
2023/08/25 06:13:59;;;;;;;2.42;2.33;;;;;;;24.52;nan;100062.31;4984739;28;20833;-76
2023/08/25 06:16:26;;;;;;;2.58;2.47;;;;;;;24.51;nan;100028.81;4981091;28;20038;-77
2023/08/25 06:18:51;;;;;;;2.35;2.25;;;;;;;24.50;nan;100020.97;4984829;28;20632;-76
2023/08/25 06:21:17;;;;;;;2.70;2.60;;;;;;;24.52;nan;100050.88;4984102;28;20072;-77
2023/08/25 06:23:42;;;;;;;2.25;2.15;;;;;;;24.51;nan;100060.66;4979720;28;20798;-76
2023/08/25 06:26:07;;;;;;;2.15;2.05;;;;;;;24.51;nan;100055.34;4989751;28;20139;-75
2023/08/25 06:28:35;;;;;;;2.33;2.22;;;;;;;24.51;nan;100052.69;4985469;28;20127;-77
2023/08/25 06:31:01;;;;;;;2.38;2.28;;;;;;;24.50;nan;100040.38;4983362;28;20037;-77
2023/08/25 06:33:29;;;;;;;2.33;2.22;;;;;;;24.49;nan;100017.47;4984249;28;20042;-77
2023/08/25 06:35:56;;;;;;;2.30;2.20;;;;;;;24.49;nan;100012.19;4979881;28;20095;-75
2023/08/25 06:38:22;;;;;;;2.42;2.33;;;;;;;24.49;nan;99982.16;4982059;28;20131;-75
2023/08/25 06:40:47;;;;;;;2.40;2.30;;;;;;;24.49;nan;99982.16;4983545;28;20397;-76
2023/08/25 06:43:13;;;;;;;2.50;2.40;;;;;;;24.48;nan;99976.00;4976905;28;20038;-76
2023/08/25 06:45:38;;;;;;;2.20;2.10;;;;;;;24.49;nan;99987.47;4980907;28;20033;-76
2023/08/25 06:48:04;;;;;;;2.65;2.50;;;;;;;24.48;nan;99981.31;4967810;28;20057;-76
2023/08/25 06:50:30;;;;;;;2.33;2.22;;;;;;;24.49;nan;99977.69;4982739;28;20040;-75
2023/08/25 06:52:55;;;;;;;2.22;2.13;;;;;;;24.49;nan;99982.16;4987209;28;20038;-76
2023/08/25 06:55:22;;;;;;;2.60;2.50;;;;;;;24.50;nan;99967.88;4990158;28;20033;-76
2023/08/25 06:57:48;;;;;;;2.22;2.13;;;;;;;24.48;nan;99973.34;4984871;28;20041;-75
2023/08/25 07:00:14;;;;;;;2.50;2.40;;;;;;;24.48;nan;99999.91;4982304;28;21240;-73
2023/08/25 07:02:41;;;;;;;2.10;2.00;;;;;;;24.50;nan;100020.97;4980452;28;20785;-74
2023/08/25 07:05:07;;;;;;;2.50;2.40;;;;;;;24.49;nan;100006.03;4987331;28;20025;-76
2023/08/25 07:07:33;;;;;;;2.30;2.20;;;;;;;24.48;nan;99986.63;4982761;28;20057;-75
2023/08/25 07:09:58;;;;;;;2.20;2.10;;;;;;;24.48;nan;99991.09;4983167;28;20041;-74
2023/08/25 07:12:24;;;;;;;2.22;2.13;;;;;;;24.48;nan;99999.06;4985673;28;20060;-76
2023/08/25 07:14:50;;;;;;;2.33;2.22;;;;;;;24.49;nan;99992.75;4991612;28;20033;-75
2023/08/25 07:17:15;;;;;;;2.67;2.58;;;;;;;24.48;nan;99991.09;4981620;28;20030;-76
2023/08/25 07:19:40;;;;;;;2.78;2.67;;;;;;;24.48;nan;100007.03;4983065;28;20162;-76
2023/08/25 07:22:06;;;;;;;2.75;2.55;;;;;;;24.49;nan;100008.69;4981189;28;20836;-74
2023/08/25 07:24:31;;;;;;;2.35;2.25;;;;;;;24.48;nan;100007.84;4986257;28;20034;-75
2023/08/25 07:26:56;;;;;;;2.42;2.33;;;;;;;24.48;nan;100007.84;4984144;28;21519;-75
2023/08/25 07:29:21;;;;;;;2.17;2.08;;;;;;;24.49;nan;100008.69;4983165;28;20915;-75
2023/08/25 07:31:47;;;;;;;2.40;2.30;;;;;;;24.47;nan;100019.47;4985368;28;20786;-76
2023/08/25 07:34:12;;;;;;;2.25;2.15;;;;;;;24.48;nan;100042.34;4985385;28;20061;-75
2023/08/25 07:36:38;;;;;;;2.20;2.10;;;;;;;24.48;nan;100038.88;4988286;28;20616;-75
2023/08/25 07:39:03;;;;;;;2.30;2.20;;;;;;;24.48;nan;100038.88;4982092;28;20045;-75
2023/08/25 07:41:29;;;;;;;2.53;2.35;;;;;;;24.48;nan;100068.88;4981509;28;20105;-75
2023/08/25 07:43:56;;;;;;;2.40;2.30;;;;;;;24.48;nan;100071.53;4986348;28;20054;-75
2023/08/25 07:46:21;;;;;;;2.53;2.42;;;;;;;24.48;nan;100057.44;4983295;28;20407;-74
2023/08/25 07:48:47;;;;;;;2.28;2.17;;;;;;;24.47;nan;100048.66;4982075;28;20060;-75
2023/08/25 07:51:12;;;;;;;2.22;2.13;;;;;;;24.47;nan;100059.25;4982901;28;20089;-75
2023/08/25 07:53:37;;;;;;;2.13;2.03;;;;;;;24.48;nan;100091.94;4985735;28;20026;-75
2023/08/25 07:56:03;;;;;;;2.50;2.30;;;;;;;24.48;nan;100084.81;4984893;28;20041;-74
2023/08/25 07:58:28;;;;;;;2.30;2.20;;;;;;;24.47;nan;100085.81;4982256;28;20117;-75
2023/08/25 08:00:54;;;;;;;2.38;2.20;;;;;;;24.46;nan;100076.19;4981154;28;20026;-76
2023/08/25 08:03:19;;;;;;;2.30;2.20;;;;;;;24.47;nan;100075.19;4984465;28;20096;-76
2023/08/25 08:05:45;;;;;;;2.42;2.33;;;;;;;24.46;nan;100073.53;4987369;28;20655;-76
2023/08/25 08:08:10;;;;;;;2.20;2.10;;;;;;;24.47;nan;100071.69;4983845;28;20073;-74
2023/08/25 08:10:37;;;;;;;2.25;2.15;;;;;;;24.45;nan;100077.16;4983483;28;20528;-76
2023/08/25 08:13:03;;;;;;;2.47;2.38;;;;;;;24.47;nan;100084.97;4980439;28;20629;-76
2023/08/25 08:15:28;;;;;;;2.22;2.13;;;;;;;24.46;nan;100070.88;4984426;28;20037;-76
2023/08/25 08:17:53;;;;;;;2.13;2.03;;;;;;;24.45;nan;100050.63;4982568;28;20775;-77
2023/08/25 08:20:19;;;;;;;2.22;2.13;;;;;;;24.46;nan;100056.78;4982978;28;20030;-77
2023/08/25 08:22:44;;;;;;;2.63;2.50;;;;;;;24.45;nan;100050.63;4989153;28;20022;-76
2023/08/25 08:25:11;;;;;;;2.85;2.65;;;;;;;24.46;nan;100075.34;4992099;28;20087;-76
2023/08/25 08:27:37;;;;;;;2.35;2.25;;;;;;;24.46;nan;100078.84;4981939;28;20567;-76
2023/08/25 08:30:03;;;;;;;2.30;2.20;;;;;;;24.45;nan;100071.88;4983566;28;20037;-76
2023/08/25 08:32:28;;;;;;;2.20;2.10;;;;;;;24.46;nan;100083.31;4984629;28;20030;-76
2023/08/25 08:34:54;;;;;;;2.80;2.60;;;;;;;24.46;nan;100080.66;4997160;28;20113;-76
2023/08/25 08:37:19;;;;;;;2.70;2.50;;;;;;;24.46;nan;100086.78;4986404;28;20513;-76
2023/08/25 08:39:44;;;;;;;2.35;2.22;;;;;;;24.46;nan;100078.00;4985406;28;20026;-76
2023/08/25 08:42:13;;;;;;;2.58;2.47;;;;;;;24.46;nan;100072.69;4983145;28;20105;-75
2023/08/25 08:44:44;;;;;;;2.28;2.17;;;;;;;24.45;nan;100079.81;4979621;28;20040;-77
2023/08/25 08:47:09;;;;;;;2.20;2.10;;;;;;;24.45;nan;100071.88;4983394;28;20450;-76
2023/08/25 08:49:36;;;;;;;2.30;2.20;;;;;;;24.45;nan;100063.03;4984293;28;20117;-76
2023/08/25 08:52:03;;;;;;;2.25;2.15;;;;;;;24.45;nan;100065.69;4985818;28;20422;-76
2023/08/25 08:54:30;;;;;;;2.45;2.35;;;;;;;24.44;nan;100054.25;4984713;28;20030;-76
2023/08/25 08:56:56;;;;;;;2.45;2.35;;;;;;;24.44;nan;100042.78;4988285;28;20077;-75
2023/08/25 08:59:22;;;;;;;2.10;2.00;;;;;;;24.42;nan;100037.66;4984837;28;20596;-76
2023/08/25 09:01:51;;;;;;;2.65;2.47;;;;;;;24.44;nan;100040.97;4985503;28;20463;-76
2023/08/25 09:04:20;;;;;;;2.17;2.08;;;;;;;24.44;nan;100051.59;4981765;28;20856;-77
2023/08/25 09:06:46;;;;;;;2.33;2.22;;;;;;;24.46;nan;100048.81;4983270;28;21146;-76
2023/08/25 09:09:12;;;;;;;2.22;2.13;;;;;;;24.44;nan;100048.94;4985972;28;20065;-76
2023/08/25 09:11:37;;;;;;;2.28;2.10;;;;;;;24.44;nan;100040.97;4985418;28;20839;-76
2023/08/25 09:14:07;;;;;;;2.20;2.10;;;;;;;24.45;nan;100044.47;4999279;28;20029;-76
2023/08/25 09:16:35;;;;;;;2.58;2.38;;;;;;;24.45;nan;100025.88;4990884;28;20034;-75
2023/08/25 09:19:04;;;;;;;2.40;2.30;;;;;;;24.44;nan;100009.13;4984272;28;20621;-77
2023/08/25 09:21:30;;;;;;;2.45;2.35;;;;;;;24.44;nan;100001.16;4984949;28;20045;-77
2023/08/25 09:23:58;;;;;;;2.50;2.30;;;;;;;24.44;nan;100006.47;4987054;28;20034;-76
2023/08/25 09:26:25;;;;;;;2.38;2.28;;;;;;;24.44;nan;100001.16;4984543;28;20216;-76
2023/08/25 09:28:56;;;;;;;2.70;2.40;;;;;;;24.44;nan;100018.91;4967549;28;20881;-77
2023/08/25 09:31:28;;;;;;;2.15;2.05;;;;;;;24.44;nan;100027.72;4984294;28;20135;-76
2023/08/25 09:34:02;;;;;;;2.22;2.13;;;;;;;24.44;nan;100011.78;4972204;28;20053;-76
2023/08/25 09:36:28;;;;;;;2.22;2.10;;;;;;;24.45;nan;100015.28;4986179;28;20038;-76
2023/08/25 09:38:53;;;;;;;2.42;2.30;;;;;;;24.45;nan;100016.13;4983771;28;20029;-76
2023/08/25 09:41:26;;;;;;;2.33;2.22;;;;;;;24.45;nan;100010.81;4982291;28;20554;-77
2023/08/25 09:43:58;;;;;;;2.28;2.17;;;;;;;24.44;nan;99979.94;4988106;28;20026;-77
2023/08/25 09:46:28;;;;;;;2.70;2.60;;;;;;;24.45;nan;99980.78;4986547;28;20175;-77
2023/08/25 09:49:01;;;;;;;2.25;2.15;;;;;;;24.44;nan;99977.28;4983104;28;20041;-76
2023/08/25 09:51:47;;;;;;;2.22;2.13;;;;;;;24.45;nan;99986.09;4984179;28;20224;-76
2023/08/25 09:54:19;;;;;;;2.50;2.40;;;;;;;24.45;nan;99986.94;4989648;28;20394;-74
2023/08/25 09:56:46;;;;;;;2.53;2.42;;;;;;;24.45;nan;99997.56;4984348;28;20412;-76
2023/08/25 09:59:13;;;;;;;2.45;2.35;;;;;;;24.45;nan;100024.09;4982876;28;20037;-76
2023/08/25 10:01:41;;;;;;;2.30;2.20;;;;;;;24.45;nan;100021.44;4985383;28;20048;-77
2023/08/25 10:04:07;;;;;;;2.20;2.10;;;;;;;24.45;nan;100029.41;4986183;28;20537;-76
2023/08/25 10:06:34;;;;;;;2.20;2.10;;;;;;;24.46;nan;100027.59;4983436;28;20283;-77
2023/08/25 10:09:00;;;;;;;2.08;1.90;;;;;;;24.46;nan;100032.88;4982646;28;20034;-76
2023/08/25 10:11:44;;;;;;;2.70;2.50;;;;;;;24.45;nan;100029.41;4983374;28;20707;-76
2023/08/25 10:14:11;;;;;;;2.30;2.20;;;;;;;24.45;nan;100028.53;4979694;28;20039;-77
2023/08/25 10:16:45;;;;;;;2.00;1.90;;;;;;;24.44;nan;100014.44;4981594;28;20030;-76
2023/08/25 10:19:14;;;;;;;2.22;2.10;;;;;;;24.43;nan;99994.19;4981875;28;20572;-75
2023/08/25 10:21:42;;;;;;;2.15;2.05;;;;;;;24.43;nan;99980.94;4965621;28;20030;-76
2023/08/25 10:24:08;;;;;;;2.42;2.00;;;;;;;24.45;nan;100055.94;4983725;28;20029;-76
2023/08/25 10:26:33;;;;;;;2.50;2.40;;;;;;;24.44;nan;100027.72;4975546;28;20942;-75
2023/08/25 10:28:59;;;;;;;2.40;2.20;;;;;;;24.45;nan;100029.41;4982611;28;20562;-76
2023/08/25 10:31:25;;;;;;;2.25;2.13;;;;;;;24.45;nan;100015.28;4983056;28;20041;-77
2023/08/25 10:33:52;;;;;;;2.50;2.30;;;;;;;24.44;nan;100011.78;4977278;28;20033;-75
2023/08/25 10:36:19;;;;;;;2.10;2.00;;;;;;;24.44;nan;100005.66;4981167;28;20127;-76
2023/08/25 10:38:46;;;;;;;2.33;2.22;;;;;;;24.44;nan;100003.00;4983917;28;20017;-77
2023/08/25 10:41:14;;;;;;;1.95;1.85;;;;;;;24.44;nan;100014.44;4983419;28;20709;-76
2023/08/25 10:43:40;;;;;;;2.05;1.95;;;;;;;24.44;nan;100009.13;4997220;28;20397;-76
2023/08/25 10:46:07;;;;;;;1.85;1.75;;;;;;;24.44;nan;100001.16;4991028;28;20034;-76
2023/08/25 10:48:32;;;;;;;2.10;2.00;;;;;;;24.44;nan;100006.47;4983169;28;20686;-76
2023/08/25 10:51:09;;;;;;;2.30;2.10;;;;;;;24.44;nan;99995.88;4981452;28;20065;-76
2023/08/25 10:53:41;;;;;;;2.30;2.20;;;;;;;24.43;nan;99998.69;4976655;28;20795;-77
2023/08/25 10:56:26;;;;;;;2.00;1.90;;;;;;;24.43;nan;99998.69;4983575;28;21525;-76
2023/08/25 10:59:06;;;;;;;2.20;2.10;;;;;;;24.42;nan;100003.16;4984685;28;20038;-76
2023/08/25 11:01:37;;;;;;;2.00;1.90;;;;;;;24.43;nan;100002.16;4984381;28;20044;-75
2023/08/25 11:04:11;;;;;;;2.13;2.03;;;;;;;24.43;nan;100004.81;4982662;28;20030;-76
2023/08/25 11:06:39;;;;;;;2.25;2.10;;;;;;;24.44;nan;100001.16;4979747;28;20053;-75
2023/08/25 11:09:05;;;;;;;2.13;2.03;;;;;;;24.43;nan;99999.50;4983107;28;20037;-75
2023/08/25 11:11:36;;;;;;;2.85;2.22;;;;;;;24.44;nan;100006.47;4982800;28;20084;-76
2023/08/25 11:14:01;;;;;;;2.20;2.10;;;;;;;24.43;nan;99990.72;4976977;28;20036;-76
2023/08/25 11:16:30;;;;;;;1.95;1.85;;;;;;;24.44;nan;100003.00;4979345;28;20041;-75
2023/08/25 11:18:55;;;;;;;2.28;2.10;;;;;;;24.43;nan;99996.84;4964397;28;20045;-73
2023/08/25 11:21:25;;;;;;;2.30;2.20;;;;;;;24.43;nan;99993.38;4980263;28;20045;-76
2023/08/25 11:23:50;;;;;;;2.33;2.13;;;;;;;24.43;nan;99988.91;4977226;28;20569;-75
2023/08/25 11:26:17;;;;;;;2.00;1.90;;;;;;;24.42;nan;99997.84;4987408;28;20048;-73
2023/08/25 11:28:42;;;;;;;2.00;1.90;;;;;;;24.43;nan;100010.13;4980974;28;20068;-75
2023/08/25 11:31:08;;;;;;;2.00;1.90;;;;;;;24.42;nan;100015.59;4981412;28;20021;-76
2023/08/25 11:33:33;;;;;;;2.15;2.05;;;;;;;24.44;nan;100014.44;4992736;28;20026;-76
2023/08/25 11:36:03;;;;;;;2.10;2.00;;;;;;;24.43;nan;100025.22;4990324;28;20072;-75
2023/08/25 11:38:29;;;;;;;2.30;2.10;;;;;;;24.44;nan;100011.78;4980550;28;20038;-76
2023/08/25 11:40:55;;;;;;;1.95;1.85;;;;;;;24.42;nan;100003.16;4981027;28;20029;-75